createdAt,value
2022-10-23T00:00:13.289Z,8.83
2022-10-23T00:02:43.905Z,8.87
2022-10-23T00:05:14.681Z,8.30
2022-10-23T00:10:12.430Z,7.73
2022-10-23T00:12:42.266Z,8.02
2022-10-23T00:15:12.493Z,9.48
2022-10-23T00:17:42.775Z,8.30
2022-10-23T00:22:40.993Z,8.40
2022-10-23T00:25:11.907Z,8.60
2022-10-23T00:27:41.970Z,8.20
2022-10-23T00:30:14.829Z,8.07
2022-10-23T00:32:44.483Z,8.73
2022-10-23T00:35:12.837Z,8.00
2022-10-23T00:37:43.235Z,8.73
2022-10-23T00:40:12.347Z,9.50
2022-10-23T00:42:40.202Z,9.90
2022-10-23T00:45:21.772Z,10.40
2022-10-23T00:47:50.100Z,10.67
2022-10-23T00:50:21.826Z,10.93
2022-10-23T00:52:53.621Z,10.67
2022-10-23T00:55:26.375Z,9.90
2022-10-23T00:57:54.529Z,9.00
2022-10-23T01:00:31.029Z,9.13
2022-10-23T01:02:59.329Z,9.17
2022-10-23T01:05:36.944Z,8.97
2022-10-23T01:08:11.639Z,9.57
2022-10-23T01:10:48.096Z,9.57
2022-10-23T01:13:22.722Z,8.70
2022-10-23T01:16:02.699Z,9.03
2022-10-23T01:18:39.296Z,8.40
2022-10-23T01:21:14.579Z,8.80
2022-10-23T01:24:06.021Z,8.53
2022-10-23T01:26:58.415Z,8.20
2022-10-23T01:29:36.026Z,8.43
2022-10-23T01:32:13.350Z,8.90
2022-10-23T01:34:48.009Z,8.57
2022-10-23T01:37:26.356Z,8.43
2022-10-23T01:40:00.862Z,8.93
2022-10-23T01:42:38.498Z,8.40
2022-10-23T01:45:14.725Z,8.73
2022-10-23T01:47:48.095Z,9.27
2022-10-23T01:50:18.354Z,9.10
2022-10-23T01:52:50.772Z,9.50
2022-10-23T01:55:18.782Z,9.03
2022-10-23T01:57:48.516Z,8.57
2022-10-23T02:00:23.486Z,8.63
2022-10-23T02:02:52.922Z,8.73
2022-10-23T02:05:27.803Z,9.50
2022-10-23T02:07:55.933Z,9.47
2022-10-23T02:10:34.131Z,9.57
2022-10-23T02:13:07.265Z,9.00
2022-10-23T02:15:44.484Z,9.60
2022-10-23T02:18:21.872Z,9.77
2022-10-23T02:20:58.732Z,9.90
2022-10-23T02:23:33.124Z,9.83
2022-10-23T02:26:10.316Z,8.87
2022-10-23T02:28:42.700Z,8.73
2022-10-23T02:31:19.760Z,9.03
2022-10-23T02:33:50.107Z,9.67
2022-10-23T02:36:19.884Z,9.93
2022-10-23T02:38:50.007Z,9.20
2022-10-23T02:41:26.737Z,9.70
2022-10-23T02:44:13.834Z,9.10
2022-10-23T02:46:52.888Z,10.20
2022-10-23T02:49:29.495Z,10.60
2022-10-23T02:52:07.293Z,10.33
2022-10-23T02:54:57.434Z,10.97
2022-10-23T02:57:31.961Z,10.30
2022-10-23T03:00:07.647Z,10.70
2022-10-23T03:02:56.019Z,10.43
2022-10-23T03:05:27.905Z,10.20
2022-10-23T03:07:56.144Z,10.20
2022-10-23T03:10:26.264Z,10.63
2022-10-23T03:12:56.189Z,10.45
2022-10-23T03:15:24.108Z,10.48
2022-10-23T03:17:54.594Z,11.40
2022-10-23T03:22:51.990Z,11.20
2022-10-23T03:25:22.159Z,11.40
2022-10-23T03:27:51.889Z,11.93
2022-10-23T03:30:20.304Z,12.80
2022-10-23T03:32:50.383Z,12.83
2022-10-23T03:35:21.823Z,13.10
2022-10-23T03:37:49.599Z,12.67
2022-10-23T03:40:19.621Z,13.07
2022-10-23T03:42:53.713Z,12.27
2022-10-23T03:45:23.785Z,13.07
2022-10-23T03:47:51.848Z,12.20
2022-10-23T03:50:23.267Z,11.23
2022-10-23T03:52:53.230Z,10.67
2022-10-23T03:55:21.006Z,11.70
2022-10-23T03:57:50.674Z,10.67
2022-10-23T04:00:21.153Z,11.30
2022-10-23T04:05:19.021Z,10.03
2022-10-23T04:07:50.232Z,9.82
2022-10-23T04:10:18.163Z,11.37
2022-10-23T04:12:47.856Z,11.47
2022-10-23T04:15:18.103Z,11.63
2022-10-23T04:17:45.808Z,10.75
2022-10-23T04:20:13.689Z,11.93
2022-10-23T04:22:44.057Z,13.00
2022-10-23T04:25:13.617Z,13.03
2022-10-23T04:27:43.564Z,11.90
2022-10-23T04:30:13.141Z,11.57
2022-10-23T04:32:41.008Z,12.10
2022-10-23T04:35:11.432Z,10.27
2022-10-23T04:37:41.730Z,11.85
2022-10-23T04:42:42.320Z,11.83
2022-10-23T04:45:12.861Z,10.87
2022-10-23T04:47:40.648Z,10.98
2022-10-23T04:50:10.920Z,10.80
2022-10-23T04:52:41.242Z,11.23
2022-10-23T04:57:41.098Z,11.63
2022-10-23T05:00:14.255Z,11.70
2022-10-23T05:02:44.162Z,12.07
2022-10-23T05:05:14.359Z,12.38
2022-10-23T05:07:42.447Z,11.68
2022-10-23T05:10:11.143Z,12.73
2022-10-23T05:12:41.825Z,11.40
2022-10-23T05:15:10.284Z,12.40
2022-10-23T05:17:44.086Z,11.03
2022-10-23T05:20:19.397Z,10.70
2022-10-23T05:22:53.018Z,10.47
2022-10-23T05:25:20.954Z,10.87
2022-10-23T05:27:50.138Z,10.40
2022-10-23T05:30:19.940Z,11.53
2022-10-23T05:32:50.083Z,11.52
2022-10-23T05:35:24.138Z,13.95
2022-10-23T05:37:55.688Z,11.63
2022-10-23T05:40:23.974Z,14.23
2022-10-23T05:42:55.231Z,12.57
2022-10-23T05:45:23.154Z,12.03
2022-10-23T05:47:50.971Z,12.43
2022-10-23T05:50:21.012Z,12.53
2022-10-23T05:52:50.987Z,12.80
2022-10-23T05:55:18.885Z,11.85
2022-10-23T05:57:49.011Z,19.73
2022-10-23T06:00:26.377Z,14.90
2022-10-23T06:02:56.192Z,12.83
2022-10-23T06:05:23.979Z,14.73
2022-10-23T06:07:54.056Z,16.03
2022-10-23T06:10:26.130Z,18.83
2022-10-23T06:12:53.928Z,14.70
2022-10-23T06:15:21.802Z,15.10
2022-10-23T06:17:54.724Z,14.90
2022-10-23T06:20:26.540Z,14.47
2022-10-23T06:23:00.641Z,15.33
2022-10-23T06:25:30.736Z,15.87
2022-10-23T06:27:58.662Z,17.77
2022-10-23T06:30:28.568Z,16.73
2022-10-23T06:33:03.207Z,19.38
2022-10-23T06:35:35.810Z,15.57
2022-10-23T06:38:05.936Z,14.90
2022-10-23T06:40:36.310Z,16.08
2022-10-23T06:43:06.123Z,17.02
2022-10-23T06:45:35.062Z,12.68
2022-10-23T06:48:04.526Z,16.00
2022-10-23T06:50:34.143Z,15.67
2022-10-23T06:53:02.246Z,11.30
2022-10-23T06:55:32.384Z,15.77
2022-10-23T06:58:00.613Z,14.52
2022-10-23T07:00:28.561Z,17.73
2022-10-23T07:02:58.809Z,19.27
2022-10-23T07:05:29.878Z,16.35
2022-10-23T07:07:57.676Z,15.63
2022-10-23T07:10:28.090Z,14.90
2022-10-23T07:13:02.548Z,13.70
2022-10-23T07:15:31.138Z,13.60
2022-10-23T07:17:58.879Z,13.57
2022-10-23T07:20:30.730Z,14.40
2022-10-23T07:23:00.686Z,13.00
2022-10-23T07:25:28.760Z,12.70
2022-10-23T07:27:58.611Z,12.50
2022-10-23T07:30:26.548Z,13.05
2022-10-23T07:32:54.333Z,12.60
2022-10-23T07:35:24.041Z,12.53
2022-10-23T07:37:55.129Z,11.23
2022-10-23T07:40:23.106Z,11.13
2022-10-23T07:42:52.835Z,10.40
2022-10-23T07:45:20.689Z,10.00
2022-10-23T07:47:52.093Z,10.17
2022-10-23T07:50:20.260Z,10.60
2022-10-23T07:52:50.371Z,9.90
2022-10-23T07:55:19.904Z,9.65
2022-10-23T07:57:52.043Z,9.93
2022-10-23T08:00:20.151Z,9.17
2022-10-23T08:02:48.033Z,11.03
2022-10-23T08:05:16.217Z,10.10
2022-10-23T08:07:44.028Z,9.57
2022-10-23T08:10:11.775Z,8.73
2022-10-23T08:12:44.996Z,10.67
2022-10-23T08:15:13.008Z,8.50
2022-10-23T08:17:41.174Z,8.43
2022-10-23T08:20:15.577Z,8.57
2022-10-23T08:22:43.462Z,8.17
2022-10-23T08:25:11.501Z,8.57
2022-10-23T08:27:45.368Z,7.87
2022-10-23T08:30:13.787Z,7.70
2022-10-23T08:32:41.570Z,8.03
2022-10-23T08:35:10.241Z,7.47
2022-10-23T08:37:38.052Z,9.50
2022-10-23T08:40:06.642Z,7.33
2022-10-23T08:42:41.935Z,8.03
2022-10-23T08:45:28.662Z,7.90
2022-10-23T08:48:07.172Z,7.43
2022-10-23T08:50:41.392Z,7.10
2022-10-23T08:53:19.066Z,6.87
2022-10-23T08:55:50.665Z,7.27
2022-10-23T08:58:31.311Z,7.13
2022-10-23T09:01:00.549Z,7.00
2022-10-23T09:03:30.685Z,6.40
2022-10-23T09:06:12.508Z,6.80
2022-10-23T09:08:53.710Z,6.27
2022-10-23T09:11:30.807Z,6.50
2022-10-23T09:14:37.090Z,7.10
2022-10-23T09:17:19.075Z,6.30
2022-10-23T09:19:55.091Z,5.87
2022-10-23T09:22:24.945Z,6.07
2022-10-23T09:24:53.955Z,6.07
2022-10-23T09:27:22.333Z,6.27
2022-10-23T09:29:52.091Z,5.40
2022-10-23T09:32:23.052Z,5.43
2022-10-23T09:34:53.525Z,5.73
2022-10-23T09:40:19.644Z,5.93
2022-10-23T09:42:59.107Z,5.50
2022-10-23T09:45:34.160Z,5.70
2022-10-23T09:48:13.155Z,5.30
2022-10-23T09:50:51.073Z,5.77
2022-10-23T09:53:24.340Z,5.90
2022-10-23T09:55:59.830Z,6.03
2022-10-23T09:58:34.660Z,6.60
2022-10-23T10:01:03.600Z,5.70
2022-10-23T10:03:33.017Z,5.83
2022-10-23T10:06:02.731Z,5.40
2022-10-23T10:08:47.336Z,5.88
2022-10-23T10:11:21.138Z,5.50
2022-10-23T10:14:15.596Z,5.57
2022-10-23T10:16:48.681Z,5.80
2022-10-23T10:19:35.950Z,5.37
2022-10-23T10:22:11.394Z,5.30
2022-10-23T10:24:50.090Z,5.20
2022-10-23T10:27:29.762Z,4.60
2022-10-23T10:30:11.493Z,5.40
2022-10-23T10:32:46.542Z,5.03
2022-10-23T10:35:45.320Z,4.73
2022-10-23T10:38:31.125Z,4.83
2022-10-23T10:41:22.590Z,4.90
2022-10-23T10:44:05.915Z,5.23
2022-10-23T10:46:41.152Z,4.80
2022-10-23T10:49:16.772Z,4.57
2022-10-23T10:51:52.782Z,4.33
2022-10-23T10:54:36.616Z,5.07
2022-10-23T10:57:13.580Z,5.00
2022-10-23T10:59:46.327Z,4.43
2022-10-23T11:02:28.848Z,4.20
2022-10-23T11:05:10.730Z,4.33
2022-10-23T11:07:44.486Z,3.80
2022-10-23T11:10:18.263Z,3.77
2022-10-23T11:12:49.738Z,3.83
2022-10-23T11:15:22.195Z,3.80
2022-10-23T11:17:56.329Z,3.73
2022-10-23T11:20:40.438Z,3.40
2022-10-23T11:23:37.654Z,3.60
2022-10-23T11:26:19.689Z,3.23
2022-10-23T11:29:05.966Z,3.77
2022-10-23T11:31:43.852Z,3.07
2022-10-23T11:34:49.764Z,3.50
2022-10-23T11:37:21.655Z,3.23
2022-10-23T11:40:04.874Z,3.27
2022-10-23T11:42:47.000Z,3.30
2022-10-23T11:45:48.756Z,3.03
2022-10-23T11:48:24.077Z,2.47
2022-10-23T11:50:55.091Z,3.00
2022-10-23T11:53:40.165Z,3.00
2022-10-23T11:59:22.547Z,2.60
2022-10-23T12:01:55.061Z,2.60
2022-10-23T12:04:29.378Z,2.73
2022-10-23T12:07:02.168Z,2.43
2022-10-23T12:09:39.169Z,2.37
2022-10-23T12:12:18.590Z,2.30
2022-10-23T12:14:51.842Z,2.00
2022-10-23T12:17:35.817Z,1.93
2022-10-23T12:20:20.564Z,1.60
2022-10-23T12:23:06.170Z,1.77
2022-10-23T12:25:45.380Z,1.53
2022-10-23T12:28:30.320Z,1.67
2022-10-23T12:31:14.222Z,1.40
2022-10-23T12:33:49.022Z,1.63
2022-10-23T12:36:54.229Z,1.50
2022-10-23T12:39:31.033Z,1.40
2022-10-23T12:42:00.179Z,1.50
2022-10-23T12:44:30.470Z,1.40
2022-10-23T12:47:05.607Z,1.45
2022-10-23T12:49:35.459Z,1.40
2022-10-23T12:52:08.745Z,1.20
2022-10-23T12:54:40.702Z,1.77
2022-10-23T12:57:23.576Z,1.60
2022-10-23T12:59:54.490Z,1.87
2022-10-23T13:02:30.138Z,1.70
2022-10-23T13:05:01.163Z,1.80
2022-10-23T13:07:30.994Z,2.00
2022-10-23T13:10:00.105Z,1.83
2022-10-23T13:12:31.361Z,1.57
2022-10-23T13:15:03.496Z,2.03
2022-10-23T13:17:38.035Z,2.20
2022-10-23T13:20:28.358Z,2.00
2022-10-23T13:23:01.643Z,2.13
2022-10-23T13:25:34.612Z,2.33
2022-10-23T13:28:24.727Z,2.50
2022-10-23T13:31:07.751Z,2.20
2022-10-23T13:33:39.555Z,2.10
2022-10-23T13:36:22.264Z,2.50
2022-10-23T13:39:01.660Z,2.10
2022-10-23T13:41:33.704Z,2.37
2022-10-23T13:44:01.578Z,2.20
2022-10-23T13:46:29.425Z,4.07
2022-10-23T13:49:00.761Z,3.33
2022-10-23T13:51:31.421Z,2.40
2022-10-23T13:53:59.553Z,2.10
2022-10-23T13:56:31.766Z,2.40
2022-10-23T13:58:59.584Z,2.40
2022-10-23T14:01:30.818Z,2.30
2022-10-23T14:04:04.404Z,2.43
2022-10-23T14:06:33.070Z,2.20
2022-10-23T14:09:01.148Z,2.13
2022-10-23T14:11:34.302Z,2.30
2022-10-23T14:14:02.063Z,2.40
2022-10-23T14:16:30.007Z,2.00
2022-10-23T14:19:01.552Z,2.80
2022-10-23T14:21:29.449Z,3.10
2022-10-23T14:23:57.225Z,3.00
2022-10-23T14:26:30.374Z,4.27
2022-10-23T14:29:02.340Z,3.50
2022-10-23T14:31:38.792Z,3.00
2022-10-23T14:34:10.023Z,2.90
2022-10-23T14:36:49.468Z,2.50
2022-10-23T14:39:21.972Z,2.60
2022-10-23T14:41:49.737Z,2.30
2022-10-23T14:44:17.563Z,2.67
2022-10-23T14:46:49.476Z,2.87
2022-10-23T14:49:18.760Z,3.23
2022-10-23T14:51:46.571Z,2.90
2022-10-23T14:54:17.695Z,3.37
2022-10-23T14:56:45.530Z,3.50
2022-10-23T14:59:15.144Z,3.23
2022-10-23T15:01:48.962Z,2.80
2022-10-23T15:04:21.827Z,2.67
2022-10-23T15:06:51.745Z,2.57
2022-10-23T15:09:20.358Z,2.50
2022-10-23T15:12:01.483Z,2.67
2022-10-23T15:14:29.438Z,2.70
2022-10-23T15:16:57.272Z,2.73
2022-10-23T15:19:27.107Z,2.80
2022-10-23T15:21:54.876Z,2.75
2022-10-23T15:24:23.080Z,3.30
2022-10-23T15:26:52.070Z,2.90
2022-10-23T15:29:20.306Z,3.87
2022-10-23T15:31:56.348Z,4.80
2022-10-23T15:34:29.753Z,4.77
2022-10-23T15:36:58.628Z,4.83
2022-10-23T15:39:28.701Z,5.27
2022-10-23T15:41:57.727Z,5.68
2022-10-23T15:44:27.678Z,5.53
2022-10-23T15:46:56.985Z,6.13
2022-10-23T15:49:32.406Z,6.50
2022-10-23T15:52:00.540Z,6.50
2022-10-23T15:54:31.910Z,6.50
2022-10-23T15:57:01.655Z,6.40
2022-10-23T15:59:31.402Z,6.20
2022-10-23T16:01:59.710Z,5.63
2022-10-23T16:04:35.200Z,6.00
2022-10-23T16:07:02.956Z,6.33
2022-10-23T16:09:30.812Z,6.60
2022-10-23T16:12:02.708Z,6.63
2022-10-23T16:14:30.521Z,7.20
2022-10-23T16:16:58.312Z,7.60
2022-10-23T16:19:31.740Z,8.03
2022-10-23T16:21:59.550Z,7.10
2022-10-23T16:24:27.390Z,7.47
2022-10-23T16:26:59.573Z,8.40
2022-10-23T16:29:29.552Z,8.43
2022-10-23T16:31:59.828Z,8.15
2022-10-23T16:34:30.898Z,8.25
2022-10-23T16:36:58.744Z,8.57
2022-10-23T16:39:30.435Z,8.23
2022-10-23T16:41:58.774Z,8.37
2022-10-23T16:44:26.762Z,9.03
2022-10-23T16:46:54.644Z,9.17
2022-10-23T16:49:22.644Z,9.47
2022-10-23T16:51:51.840Z,8.47
2022-10-23T16:54:21.606Z,9.40
2022-10-23T16:56:49.643Z,9.55
2022-10-23T16:59:17.559Z,9.83
2022-10-23T17:01:45.657Z,9.63
2022-10-23T17:04:15.446Z,9.47
2022-10-23T17:06:43.275Z,10.00
2022-10-23T17:09:12.547Z,9.90
2022-10-23T17:11:41.924Z,11.80
2022-10-23T17:14:14.452Z,11.97
2022-10-23T17:16:46.908Z,12.30
2022-10-23T17:19:40.164Z,10.80
2022-10-23T17:22:10.681Z,9.40
2022-10-23T17:24:50.135Z,8.37
2022-10-23T17:27:21.853Z,9.40
2022-10-23T17:29:49.836Z,9.20
2022-10-23T17:32:17.737Z,9.00
2022-10-23T17:34:46.674Z,8.27
2022-10-23T17:37:14.757Z,8.60
2022-10-23T17:39:44.287Z,12.17
2022-10-23T17:42:22.499Z,11.73
2022-10-23T17:44:52.666Z,14.87
2022-10-23T17:47:20.741Z,13.88
2022-10-23T17:49:48.855Z,15.43
2022-10-23T17:52:20.904Z,15.70
2022-10-23T17:54:53.475Z,14.90
2022-10-23T17:59:52.553Z,14.40
2022-10-23T18:02:20.993Z,13.93
2022-10-23T18:04:49.210Z,17.17
2022-10-23T18:07:17.181Z,41.00
2022-10-23T18:09:48.119Z,23.53
2022-10-23T18:12:19.427Z,20.33
2022-10-23T18:14:51.876Z,20.77
2022-10-23T18:17:24.902Z,29.07
2022-10-23T18:20:01.663Z,26.33
2022-10-23T18:22:33.438Z,18.73
2022-10-23T18:25:03.332Z,21.03
2022-10-23T18:27:41.692Z,24.45
2022-10-23T18:30:13.457Z,24.47
2022-10-23T18:32:42.001Z,24.90
2022-10-23T18:35:13.585Z,25.57
2022-10-23T18:37:43.971Z,25.60
2022-10-23T18:40:21.272Z,25.95
2022-10-23T18:42:58.962Z,20.67
2022-10-23T18:45:30.780Z,22.23
2022-10-23T18:48:03.122Z,22.23
2022-10-23T18:50:38.960Z,16.97
2022-10-23T18:53:10.495Z,13.77
2022-10-23T18:55:47.213Z,12.10
2022-10-23T18:58:19.910Z,11.33
2022-10-23T19:00:49.688Z,12.23
2022-10-23T19:03:21.042Z,13.60
2022-10-23T19:05:54.543Z,13.50
2022-10-23T19:08:33.425Z,14.00
2022-10-23T19:11:05.962Z,14.70
2022-10-23T19:13:39.535Z,17.33
2022-10-23T19:16:25.182Z,18.30
2022-10-23T19:18:57.834Z,16.30
2022-10-23T19:21:32.243Z,17.10
2022-10-23T19:24:07.432Z,17.87
2022-10-23T19:26:44.692Z,19.50
2022-10-23T19:29:18.834Z,17.50
2022-10-23T19:31:54.543Z,18.60
2022-10-23T19:34:25.307Z,19.50
2022-10-23T19:36:55.384Z,20.57
2022-10-23T19:39:27.253Z,22.80
2022-10-23T19:41:58.294Z,18.10
2022-10-23T19:44:31.858Z,21.40
2022-10-23T19:47:02.246Z,23.13
2022-10-23T19:49:33.574Z,21.50
2022-10-23T19:52:02.763Z,21.57
2022-10-23T19:54:34.067Z,22.70
2022-10-23T19:57:04.359Z,21.90
2022-10-23T19:59:36.231Z,20.98
2022-10-23T20:02:05.207Z,23.03
2022-10-23T20:04:35.718Z,21.43
2022-10-23T20:07:05.923Z,19.23
2022-10-23T20:09:36.671Z,17.45
2022-10-23T20:12:05.147Z,15.63
2022-10-23T20:14:43.196Z,17.60
2022-10-23T20:17:11.103Z,15.07
2022-10-23T20:19:41.272Z,14.23
2022-10-23T20:22:11.455Z,15.15
2022-10-23T20:24:42.332Z,13.82
2022-10-23T20:27:13.892Z,16.23
2022-10-23T20:29:43.944Z,15.30
2022-10-23T20:32:15.605Z,13.65
2022-10-23T20:34:43.944Z,15.20
2022-10-23T20:37:11.960Z,15.10
2022-10-23T20:39:42.010Z,13.83
2022-10-23T20:42:09.944Z,14.27
2022-10-23T20:44:37.999Z,14.80
2022-10-23T20:47:11.199Z,14.87
2022-10-23T20:49:39.053Z,15.37
2022-10-23T20:52:06.887Z,16.03
2022-10-23T20:54:40.139Z,17.97
2022-10-23T20:57:07.974Z,13.63
2022-10-23T20:59:35.877Z,14.07
2022-10-23T21:02:04.033Z,14.33
2022-10-23T21:04:33.392Z,14.00
2022-10-23T21:07:16.446Z,16.60
2022-10-23T21:09:44.620Z,16.87
2022-10-23T21:12:12.429Z,15.93
2022-10-23T21:14:40.272Z,14.97
2022-10-23T21:17:10.828Z,14.10
2022-10-23T21:22:08.052Z,13.33
2022-10-23T21:24:38.045Z,13.47
2022-10-23T21:27:05.859Z,13.55
2022-10-23T21:29:33.654Z,13.53
2022-10-23T21:32:05.904Z,13.00
2022-10-23T21:34:33.695Z,13.20
2022-10-23T21:37:13.409Z,13.97
2022-10-23T21:39:42.265Z,14.68
2022-10-23T21:42:10.491Z,14.13
2022-10-23T21:44:38.609Z,13.73
2022-10-23T21:47:08.934Z,13.47
2022-10-23T21:49:36.953Z,13.52
2022-10-23T21:52:06.299Z,12.47
2022-10-23T21:54:34.313Z,14.23
2022-10-23T21:57:03.177Z,12.63
2022-10-23T21:59:33.195Z,12.93
2022-10-23T22:02:07.537Z,11.93
2022-10-23T22:04:35.357Z,11.30
2022-10-23T22:07:03.739Z,9.57
2022-10-23T22:09:36.823Z,10.23
2022-10-23T22:12:04.864Z,8.57
2022-10-23T22:14:36.704Z,10.83
2022-10-23T22:17:04.979Z,12.13
2022-10-23T22:19:33.374Z,11.50
2022-10-23T22:22:01.361Z,11.10
2022-10-23T22:24:31.181Z,10.67
2022-10-23T22:27:00.324Z,9.00
2022-10-23T22:29:30.242Z,7.37
2022-10-23T22:32:01.980Z,5.50
2022-10-23T22:37:23.412Z,4.53
2022-10-23T22:39:53.922Z,3.90
2022-10-23T22:44:52.467Z,4.03
2022-10-23T22:47:22.511Z,4.03
2022-10-23T22:49:50.229Z,4.65
2022-10-23T22:52:19.857Z,4.30
2022-10-23T22:54:51.712Z,4.47
2022-10-23T22:57:19.586Z,3.80
2022-10-23T22:59:48.785Z,3.90
2022-10-23T23:02:16.717Z,4.13
2022-10-23T23:04:44.513Z,3.70
2022-10-23T23:07:13.613Z,3.83
2022-10-23T23:09:46.715Z,3.83
2022-10-23T23:12:15.822Z,3.30
2022-10-23T23:14:45.715Z,3.80
2022-10-23T23:17:16.712Z,3.28
2022-10-23T23:19:44.519Z,3.40
2022-10-23T23:22:14.496Z,3.40
2022-10-23T23:24:44.245Z,3.35
2022-10-23T23:27:12.190Z,3.22
2022-10-23T23:29:42.199Z,3.27
2022-10-23T23:32:13.555Z,3.10
2022-10-23T23:34:42.847Z,3.10
2022-10-23T23:37:10.665Z,2.80
2022-10-23T23:39:41.013Z,3.23
2022-10-23T23:42:11.045Z,2.85
2022-10-23T23:44:45.864Z,2.80
2022-10-23T23:47:27.901Z,2.33
2022-10-23T23:49:57.148Z,2.83
2022-10-23T23:52:24.954Z,2.50
2022-10-23T23:54:57.391Z,2.53
2022-10-23T23:57:25.211Z,2.43
2022-10-23T23:59:53.128Z,2.60
